createdAt,value
2023-02-18T00:01:30.843Z,67.95
2023-02-18T00:04:03.346Z,68.37
2023-02-18T00:06:36.880Z,68.15
2023-02-18T00:09:09.151Z,68.33
2023-02-18T00:11:41.384Z,68.21
2023-02-18T00:14:16.882Z,68.29
2023-02-18T00:16:48.806Z,68.52
2023-02-18T00:19:21.709Z,68.43
2023-02-18T00:21:53.433Z,68.50
2023-02-18T00:24:25.158Z,68.80
2023-02-18T00:26:56.866Z,68.42
2023-02-18T00:29:28.624Z,68.54
2023-02-18T00:32:00.565Z,68.92
2023-02-18T00:34:33.968Z,68.67
2023-02-18T00:37:08.545Z,68.53
2023-02-18T00:39:40.269Z,68.89
2023-02-18T00:42:12.961Z,68.60
2023-02-18T00:44:44.880Z,69.01
2023-02-18T00:47:16.968Z,68.96
2023-02-18T00:49:48.838Z,69.13
2023-02-18T00:52:20.544Z,69.34
2023-02-18T00:54:52.280Z,69.69
2023-02-18T00:57:24.092Z,69.63
2023-02-18T00:59:55.792Z,69.79
2023-02-18T01:02:27.558Z,69.74
2023-02-18T01:04:59.489Z,69.92
2023-02-18T01:07:31.549Z,69.86
2023-02-18T01:10:04.580Z,69.91
2023-02-18T01:12:36.518Z,69.78
2023-02-18T01:15:10.281Z,69.75
2023-02-18T01:17:41.995Z,70.06
2023-02-18T01:20:16.090Z,70.13
2023-02-18T01:22:47.907Z,70.12
2023-02-18T01:25:19.928Z,70.09
2023-02-18T01:27:51.729Z,70.18
2023-02-18T01:30:24.094Z,70.08
2023-02-18T01:32:56.625Z,69.96
2023-02-18T01:35:28.372Z,70.13
2023-02-18T01:38:00.250Z,70.24
2023-02-18T01:40:32.645Z,70.27
2023-02-18T01:43:05.344Z,70.54
2023-02-18T01:46:04.433Z,70.86
2023-02-18T01:48:40.588Z,70.79
2023-02-18T01:51:15.916Z,71.09
2023-02-18T01:53:54.009Z,71.34
2023-02-18T01:56:30.441Z,71.56
2023-02-18T01:59:06.552Z,71.74
2023-02-18T02:01:40.487Z,71.70
2023-02-18T02:04:13.925Z,71.90
2023-02-18T02:06:46.374Z,72.28
2023-02-18T02:09:21.161Z,72.45
2023-02-18T02:12:22.098Z,72.56
2023-02-18T02:15:09.816Z,72.61
2023-02-18T02:18:06.194Z,72.53
2023-02-18T02:21:02.660Z,72.67
2023-02-18T02:23:58.429Z,72.85
2023-02-18T02:27:07.100Z,73.10
2023-02-18T02:30:25.352Z,73.33
2023-02-18T02:33:22.245Z,73.41
2023-02-18T02:36:01.039Z,73.39
2023-02-18T02:38:40.216Z,73.62
2023-02-18T02:41:23.416Z,73.51
2023-02-18T02:44:03.187Z,73.60
2023-02-18T02:46:41.638Z,73.68
2023-02-18T02:49:25.671Z,73.76
2023-02-18T02:52:04.941Z,73.67
2023-02-18T02:54:37.115Z,73.58
2023-02-18T02:57:31.353Z,73.71
2023-02-18T03:00:17.014Z,73.71
2023-02-18T03:03:08.775Z,73.40
2023-02-18T03:05:54.344Z,73.45
2023-02-18T03:08:38.926Z,73.33
2023-02-18T03:11:14.121Z,73.26
2023-02-18T03:13:58.614Z,73.33
2023-02-18T03:16:42.418Z,73.36
2023-02-18T03:19:23.442Z,73.05
2023-02-18T03:22:01.738Z,72.83
2023-02-18T03:24:37.403Z,72.52
2023-02-18T03:27:15.503Z,72.67
2023-02-18T03:29:52.245Z,72.72
2023-02-18T03:32:26.699Z,72.66
2023-02-18T03:35:03.143Z,72.64
2023-02-18T03:37:40.038Z,72.74
2023-02-18T03:40:13.654Z,72.58
2023-02-18T03:42:45.573Z,72.78
2023-02-18T03:45:17.554Z,72.73
2023-02-18T03:47:49.984Z,72.68
2023-02-18T03:50:22.768Z,72.46
2023-02-18T03:52:54.388Z,72.72
2023-02-18T03:55:26.107Z,72.49
2023-02-18T03:57:57.831Z,72.38
2023-02-18T04:00:29.600Z,72.34
2023-02-18T04:03:01.286Z,72.15
2023-02-18T04:05:33.155Z,72.15
2023-02-18T04:08:05.622Z,71.95
2023-02-18T04:10:37.722Z,72.01
2023-02-18T04:13:09.443Z,72.23
2023-02-18T04:15:41.121Z,72.03
2023-02-18T04:18:13.711Z,71.96
2023-02-18T04:20:46.627Z,71.99
2023-02-18T04:23:18.697Z,71.95
2023-02-18T04:25:50.541Z,72.01
2023-02-18T04:28:22.613Z,71.93
2023-02-18T04:30:54.569Z,71.84
2023-02-18T04:33:26.719Z,71.90
2023-02-18T04:35:58.576Z,71.99
2023-02-18T04:38:30.365Z,72.15
2023-02-18T04:41:02.381Z,72.26
2023-02-18T04:43:34.078Z,71.90
2023-02-18T04:46:06.198Z,72.25
2023-02-18T04:48:38.788Z,72.20
2023-02-18T04:51:10.972Z,71.90
2023-02-18T04:53:42.729Z,72.01
2023-02-18T04:56:14.425Z,72.14
2023-02-18T04:58:46.202Z,72.09
2023-02-18T05:01:17.936Z,72.03
2023-02-18T05:03:49.670Z,72.02
2023-02-18T05:06:21.899Z,72.04
2023-02-18T05:08:53.664Z,71.95
2023-02-18T05:11:25.364Z,71.88
2023-02-18T05:13:57.070Z,72.04
2023-02-18T05:16:28.881Z,72.19
2023-02-18T05:19:00.973Z,72.20
2023-02-18T05:21:33.183Z,72.31
2023-02-18T05:24:05.195Z,72.43
2023-02-18T05:26:37.008Z,72.33
2023-02-18T05:29:08.824Z,72.12
2023-02-18T05:31:40.683Z,72.34
2023-02-18T05:34:12.465Z,72.30
2023-02-18T05:36:45.198Z,72.45
2023-02-18T05:39:15.323Z,72.72
2023-02-18T05:41:47.026Z,72.72
2023-02-18T05:44:33.888Z,72.91
2023-02-18T05:47:09.321Z,73.02
2023-02-18T05:49:44.573Z,73.07
2023-02-18T05:52:16.818Z,73.30
2023-02-18T05:54:48.893Z,73.47
2023-02-18T05:57:21.089Z,73.36
2023-02-18T05:59:53.137Z,73.24
2023-02-18T06:02:24.978Z,73.34
2023-02-18T06:04:56.724Z,73.22
2023-02-18T06:07:28.559Z,73.02
2023-02-18T06:10:00.285Z,73.17
2023-02-18T06:12:32.171Z,73.20
2023-02-18T06:15:03.907Z,73.32
2023-02-18T06:17:35.900Z,73.43
2023-02-18T06:20:09.760Z,73.40
2023-02-18T06:22:42.049Z,73.57
2023-02-18T06:25:14.087Z,73.53
2023-02-18T06:27:45.806Z,73.58
2023-02-18T06:30:18.047Z,73.87
2023-02-18T06:32:49.848Z,73.82
2023-02-18T06:35:21.658Z,73.83
2023-02-18T06:37:53.383Z,73.90
2023-02-18T06:40:25.090Z,74.16
2023-02-18T06:42:56.823Z,74.31
2023-02-18T06:45:28.905Z,74.46
2023-02-18T06:48:00.612Z,74.54
2023-02-18T06:50:32.739Z,74.78
2023-02-18T06:53:04.828Z,74.75
2023-02-18T06:55:36.565Z,74.65
2023-02-18T06:58:08.260Z,74.87
2023-02-18T07:00:40.158Z,74.93
2023-02-18T07:03:16.738Z,74.91
2023-02-18T07:05:49.055Z,74.85
2023-02-18T07:08:21.056Z,74.67
2023-02-18T07:10:52.937Z,74.85
2023-02-18T07:13:24.665Z,74.78
2023-02-18T07:15:56.524Z,74.62
2023-02-18T07:18:28.342Z,74.61
2023-02-18T07:21:01.061Z,74.59
2023-02-18T07:23:33.287Z,74.81
2023-02-18T07:26:11.480Z,74.73
2023-02-18T07:28:44.402Z,74.56
2023-02-18T07:31:20.137Z,74.32
2023-02-18T07:33:52.046Z,74.35
2023-02-18T07:36:25.487Z,74.07
2023-02-18T07:38:57.725Z,73.83
2023-02-18T07:41:29.556Z,73.72
2023-02-18T07:44:01.903Z,73.46
2023-02-18T07:46:33.798Z,73.56
2023-02-18T07:49:05.627Z,73.51
2023-02-18T07:51:38.884Z,73.24
2023-02-18T07:54:11.401Z,73.23
2023-02-18T07:56:43.736Z,72.99
2023-02-18T07:59:16.127Z,72.92
2023-02-18T08:01:48.354Z,72.82
2023-02-18T08:04:20.428Z,72.77
2023-02-18T08:06:52.930Z,72.51
2023-02-18T08:09:24.762Z,72.33
2023-02-18T08:11:56.719Z,71.96
2023-02-18T08:14:28.478Z,72.12
2023-02-18T08:17:00.325Z,72.35
2023-02-18T08:19:32.120Z,72.01
2023-02-18T08:22:06.535Z,71.42
2023-02-18T08:24:39.310Z,71.22
2023-02-18T08:27:11.133Z,71.10
2023-02-18T08:29:43.009Z,71.10
2023-02-18T08:32:14.877Z,70.94
2023-02-18T08:34:46.650Z,70.91
2023-02-18T08:37:18.424Z,71.15
2023-02-18T08:39:50.177Z,71.37
2023-02-18T08:42:22.041Z,70.88
2023-02-18T08:44:53.797Z,70.67
2023-02-18T08:48:16.995Z,70.64
2023-02-18T08:50:17.649Z,70.34
2023-02-18T08:52:49.961Z,70.51
2023-02-18T08:55:22.177Z,70.27
2023-02-18T08:57:53.952Z,69.73
2023-02-18T09:00:26.167Z,69.78
2023-02-18T09:02:58.277Z,69.14
2023-02-18T09:05:30.369Z,69.14
2023-02-18T09:08:02.326Z,69.14
2023-02-18T09:10:34.033Z,69.33
2023-02-18T09:13:06.870Z,69.12
2023-02-18T09:15:37.295Z,69.07
2023-02-18T09:18:09.430Z,69.05
2023-02-18T09:20:42.402Z,68.52
2023-02-18T09:23:15.788Z,68.08
2023-02-18T09:25:47.869Z,67.74
2023-02-18T09:28:19.645Z,67.43
2023-02-18T09:30:51.685Z,67.45
2023-02-18T09:33:23.547Z,67.14
2023-02-18T09:35:55.277Z,66.60
2023-02-18T09:38:27.463Z,66.50
2023-02-18T09:41:01.532Z,65.77
2023-02-18T09:43:36.898Z,65.78
2023-02-18T09:46:17.928Z,66.29
2023-02-18T09:48:51.911Z,65.11
2023-02-18T09:51:23.662Z,64.74
2023-02-18T09:53:55.797Z,63.86
2023-02-18T09:56:32.406Z,63.77
2023-02-18T09:59:12.385Z,63.53
2023-02-18T10:01:45.048Z,63.41
2023-02-18T10:04:23.650Z,63.09
2023-02-18T10:06:56.203Z,62.81
2023-02-18T10:09:33.165Z,62.01
2023-02-18T10:12:14.836Z,61.29
2023-02-18T10:14:49.679Z,60.80
2023-02-18T10:17:22.837Z,60.22
2023-02-18T10:19:57.077Z,59.71
2023-02-18T10:22:29.837Z,59.11
2023-02-18T10:25:05.018Z,58.50
2023-02-18T10:27:40.948Z,58.83
2023-02-18T10:30:25.719Z,59.03
2023-02-18T10:33:14.236Z,58.33
2023-02-18T10:35:53.990Z,57.13
2023-02-18T10:38:36.772Z,57.20
2023-02-18T10:41:17.643Z,57.11
2023-02-18T10:43:56.143Z,57.02
2023-02-18T10:46:36.077Z,56.35
2023-02-18T10:49:25.441Z,55.11
2023-02-18T10:51:59.104Z,55.41
2023-02-18T10:54:51.614Z,55.46
2023-02-18T10:57:26.865Z,54.88
2023-02-18T11:00:16.569Z,54.95
2023-02-18T11:03:03.409Z,55.30
2023-02-18T11:05:39.522Z,55.04
2023-02-18T11:08:16.330Z,55.49
2023-02-18T11:10:49.996Z,55.37
2023-02-18T11:13:28.478Z,55.20
2023-02-18T11:16:17.219Z,54.84
2023-02-18T11:18:50.326Z,54.67
2023-02-18T11:21:32.615Z,54.61
2023-02-18T11:24:18.104Z,54.81
2023-02-18T11:26:52.504Z,54.60
2023-02-18T11:29:27.846Z,54.25
2023-02-18T11:32:03.136Z,54.58
2023-02-18T11:34:37.521Z,55.21
2023-02-18T11:37:19.324Z,54.93
2023-02-18T11:39:56.425Z,55.42
2023-02-18T11:42:32.239Z,55.61
2023-02-18T11:45:06.699Z,55.65
2023-02-18T11:47:59.400Z,55.94
2023-02-18T11:50:37.617Z,56.15
2023-02-18T11:53:32.873Z,56.64
2023-02-18T11:56:20.189Z,57.13
2023-02-18T11:58:57.437Z,58.11
2023-02-18T12:01:42.871Z,59.25
2023-02-18T12:04:17.855Z,59.97
2023-02-18T12:07:03.056Z,60.51
2023-02-18T12:09:42.894Z,61.36
2023-02-18T12:12:36.197Z,62.68
2023-02-18T12:15:11.055Z,64.62
2023-02-18T12:18:06.626Z,65.85
2023-02-18T12:20:55.455Z,66.90
2023-02-18T12:23:34.742Z,67.38
2023-02-18T12:26:19.411Z,68.36
2023-02-18T12:29:06.258Z,69.76
2023-02-18T12:31:59.419Z,72.07
2023-02-18T12:34:45.148Z,73.55
2023-02-18T12:37:54.018Z,75.10
2023-02-18T12:40:42.004Z,76.11
2023-02-18T12:43:23.348Z,77.53
2023-02-18T12:46:16.148Z,79.68
2023-02-18T12:49:11.991Z,82.02
2023-02-18T12:51:58.438Z,83.93
2023-02-18T12:54:52.294Z,84.16
2023-02-18T12:57:40.143Z,84.30
2023-02-18T13:00:39.720Z,85.09
2023-02-18T13:03:47.112Z,85.02
2023-02-18T13:06:49.390Z,86.18
2023-02-18T13:09:34.740Z,87.88
2023-02-18T13:12:14.941Z,89.59
2023-02-18T13:14:51.721Z,91.18
2023-02-18T13:17:25.467Z,92.16
2023-02-18T13:20:00.819Z,92.92
2023-02-18T13:22:34.141Z,93.97
2023-02-18T13:25:06.548Z,94.37
2023-02-18T13:27:44.825Z,94.87
2023-02-18T13:30:27.589Z,95.43
2023-02-18T13:33:11.268Z,96.07
2023-02-18T13:35:49.632Z,96.61
2023-02-18T13:38:47.222Z,96.77
2023-02-18T13:41:19.908Z,97.37
2023-02-18T13:43:50.203Z,96.43
2023-02-18T13:46:23.149Z,96.79
2023-02-18T13:49:05.234Z,97.10
2023-02-18T13:51:42.369Z,97.21
2023-02-18T13:54:21.446Z,96.29
2023-02-18T13:56:59.329Z,96.21
2023-02-18T13:59:38.523Z,96.39
2023-02-18T14:02:35.022Z,97.64
2023-02-18T14:05:25.736Z,98.12
2023-02-18T14:08:12.783Z,98.98
2023-02-18T14:11:05.010Z,98.85
2023-02-18T14:13:44.832Z,98.66
2023-02-18T14:16:16.894Z,97.78
2023-02-18T14:19:02.953Z,98.02
2023-02-18T14:21:43.576Z,96.68
2023-02-18T14:24:35.515Z,97.50
2023-02-18T14:27:21.902Z,96.64
2023-02-18T14:29:54.873Z,95.66
2023-02-18T14:32:28.029Z,95.87
2023-02-18T14:35:31.898Z,96.67
2023-02-18T14:38:26.338Z,96.25
2023-02-18T14:41:15.386Z,96.51
2023-02-18T14:44:05.636Z,96.86
2023-02-18T14:46:48.618Z,96.62
2023-02-18T14:49:25.832Z,97.09
2023-02-18T14:52:00.796Z,97.66
2023-02-18T14:54:32.983Z,97.87
2023-02-18T14:57:10.318Z,97.82
2023-02-18T14:59:44.273Z,97.51
2023-02-18T15:02:23.661Z,97.22
2023-02-18T15:04:55.489Z,97.83
2023-02-18T15:07:27.302Z,97.85
2023-02-18T15:10:00.759Z,98.91
2023-02-18T15:12:33.213Z,99.86
2023-02-18T15:15:07.686Z,99.73
2023-02-18T15:17:45.506Z,99.27
2023-02-18T15:20:18.364Z,99.33
2023-02-18T15:22:49.330Z,99.00
2023-02-18T15:25:21.279Z,99.75
2023-02-18T15:27:55.016Z,99.94
2023-02-18T15:30:31.173Z,100.00
2023-02-18T15:33:03.564Z,100.00
2023-02-18T15:35:35.549Z,100.00
2023-02-18T15:38:07.296Z,100.00
2023-02-18T15:40:40.955Z,100.00
2023-02-18T15:43:20.181Z,100.00
2023-02-18T15:45:55.714Z,100.00
2023-02-18T15:48:33.741Z,100.00
2023-02-18T15:51:17.459Z,99.95
2023-02-18T15:53:52.661Z,99.93
2023-02-18T15:56:31.358Z,100.00
2023-02-18T15:59:18.633Z,100.00
2023-02-18T16:01:53.771Z,100.00
2023-02-18T16:04:30.711Z,100.00
2023-02-18T16:07:05.889Z,100.00
2023-02-18T16:09:40.898Z,100.00
2023-02-18T16:12:23.774Z,100.00
2023-02-18T16:14:59.015Z,99.96
2023-02-18T16:17:32.311Z,98.85
2023-02-18T16:20:16.392Z,98.27
2023-02-18T16:22:52.309Z,98.54
2023-02-18T16:25:28.339Z,98.75
2023-02-18T16:28:13.877Z,98.25
2023-02-18T16:30:46.403Z,98.52
2023-02-18T16:33:18.737Z,99.17
2023-02-18T16:35:51.157Z,98.33
2023-02-18T16:38:26.102Z,97.59
2023-02-18T16:40:57.881Z,97.25
2023-02-18T16:43:32.691Z,97.79
2023-02-18T16:46:14.486Z,99.23
2023-02-18T16:48:50.480Z,99.63
2023-02-18T16:51:26.013Z,100.00
2023-02-18T16:53:58.618Z,100.00
2023-02-18T16:56:32.189Z,100.00
2023-02-18T16:59:04.038Z,100.00
2023-02-18T17:01:38.256Z,100.00
2023-02-18T17:04:14.966Z,100.00
2023-02-18T17:06:48.610Z,100.00
2023-02-18T17:09:22.964Z,100.00
2023-02-18T17:11:57.025Z,100.00
2023-02-18T17:14:29.468Z,100.00
2023-02-18T17:17:02.677Z,100.00
2023-02-18T17:19:34.730Z,100.00
2023-02-18T17:22:06.822Z,100.00
2023-02-18T17:24:38.551Z,100.00
2023-02-18T17:27:12.267Z,100.00
2023-02-18T17:29:44.759Z,100.00
2023-02-18T17:32:16.629Z,100.00
2023-02-18T17:34:49.070Z,100.00
2023-02-18T17:37:20.806Z,100.00
2023-02-18T17:39:53.200Z,100.00
2023-02-18T17:42:25.311Z,100.00
2023-02-18T17:44:57.266Z,100.00
2023-02-18T17:47:29.546Z,100.00
2023-02-18T17:50:01.943Z,100.00
2023-02-18T17:52:36.294Z,100.00
2023-02-18T17:55:18.590Z,100.00
2023-02-18T17:57:51.484Z,100.00
2023-02-18T18:00:26.278Z,100.00
2023-02-18T18:02:58.047Z,100.00
2023-02-18T18:05:33.084Z,100.00
2023-02-18T18:08:06.262Z,100.00
2023-02-18T18:10:40.822Z,100.00
2023-02-18T18:13:20.016Z,100.00
2023-02-18T18:15:55.131Z,100.00
2023-02-18T18:18:28.573Z,100.00
2023-02-18T18:21:02.686Z,100.00
2023-02-18T18:23:34.594Z,100.00
2023-02-18T18:26:06.474Z,100.00
2023-02-18T18:28:38.338Z,100.00
2023-02-18T18:31:16.185Z,100.00
2023-02-18T18:33:50.473Z,100.00
2023-02-18T18:36:24.008Z,100.00
2023-02-18T18:38:55.994Z,100.00
2023-02-18T18:41:27.728Z,100.00
2023-02-18T18:43:59.505Z,100.00
2023-02-18T18:46:31.460Z,100.00
2023-02-18T18:49:06.520Z,100.00
2023-02-18T18:51:38.236Z,100.00
2023-02-18T18:54:10.748Z,100.00
2023-02-18T18:56:42.678Z,100.00
2023-02-18T18:59:14.547Z,100.00
2023-02-18T19:01:46.326Z,100.00
2023-02-18T19:04:19.250Z,100.00
2023-02-18T19:06:52.238Z,100.00
2023-02-18T19:09:24.023Z,100.00
2023-02-18T19:11:55.689Z,100.00
2023-02-18T19:14:27.690Z,100.00
2023-02-18T19:16:59.892Z,100.00
2023-02-18T19:19:31.942Z,100.00
2023-02-18T19:22:03.743Z,100.00
2023-02-18T19:24:35.586Z,100.00
2023-02-18T19:27:07.458Z,100.00
2023-02-18T19:29:39.246Z,100.00
2023-02-18T19:32:11.111Z,100.00
2023-02-18T19:34:42.909Z,100.00
2023-02-18T19:37:14.705Z,100.00
2023-02-18T19:39:46.574Z,100.00
2023-02-18T19:42:18.550Z,100.00
2023-02-18T19:44:50.308Z,100.00
2023-02-18T19:47:22.745Z,100.00
2023-02-18T19:49:55.561Z,100.00
2023-02-18T19:52:25.819Z,100.00
2023-02-18T19:54:58.082Z,100.00
2023-02-18T19:57:29.949Z,100.00
2023-02-18T20:00:01.817Z,100.00
2023-02-18T20:02:34.391Z,100.00
2023-02-18T20:05:07.178Z,100.00
2023-02-18T20:07:41.418Z,100.00
2023-02-18T20:10:17.214Z,100.00
2023-02-18T20:12:54.016Z,100.00
2023-02-18T20:15:26.157Z,100.00
2023-02-18T20:17:58.175Z,100.00
2023-02-18T20:20:30.133Z,100.00
2023-02-18T20:23:02.057Z,100.00
2023-02-18T20:25:33.998Z,100.00
2023-02-18T20:28:07.764Z,100.00
2023-02-18T20:30:39.796Z,100.00
2023-02-18T20:33:11.994Z,100.00
2023-02-18T20:35:44.113Z,100.00
2023-02-18T20:38:18.044Z,100.00
2023-02-18T20:40:50.450Z,100.00
2023-02-18T20:43:22.477Z,100.00
2023-02-18T20:45:55.070Z,100.00
2023-02-18T20:48:27.326Z,100.00
2023-02-18T20:51:03.716Z,100.00
2023-02-18T20:53:37.337Z,100.00
2023-02-18T20:56:10.807Z,100.00
2023-02-18T20:58:43.206Z,100.00
2023-02-18T21:01:16.864Z,100.00
2023-02-18T21:03:50.498Z,100.00
2023-02-18T21:06:25.352Z,100.00
2023-02-18T21:08:57.400Z,100.00
2023-02-18T21:11:29.732Z,100.00
2023-02-18T21:14:02.118Z,100.00
2023-02-18T21:16:38.466Z,100.00
2023-02-18T21:19:13.279Z,100.00
2023-02-18T21:21:46.844Z,100.00
2023-02-18T21:24:19.007Z,100.00
2023-02-18T21:26:51.208Z,100.00
2023-02-18T21:29:23.182Z,100.00
2023-02-18T21:31:55.077Z,100.00
2023-02-18T21:34:27.077Z,100.00
2023-02-18T21:36:59.313Z,100.00
2023-02-18T21:39:31.074Z,100.00
2023-02-18T21:42:04.267Z,100.00
2023-02-18T21:44:42.187Z,100.00
2023-02-18T21:47:14.887Z,100.00
2023-02-18T21:49:47.029Z,100.00
2023-02-18T21:52:19.218Z,100.00
2023-02-18T21:54:54.738Z,100.00
2023-02-18T21:57:27.537Z,100.00
2023-02-18T22:00:05.787Z,100.00
2023-02-18T22:02:46.519Z,100.00
2023-02-18T22:05:18.497Z,100.00
2023-02-18T22:07:50.234Z,100.00
2023-02-18T22:10:22.370Z,100.00
2023-02-18T22:12:54.056Z,100.00
2023-02-18T22:15:26.015Z,100.00
2023-02-18T22:17:57.806Z,100.00
2023-02-18T22:20:30.071Z,100.00
2023-02-18T22:23:02.061Z,100.00
2023-02-18T22:25:33.810Z,100.00
2023-02-18T22:28:07.436Z,100.00
2023-02-18T22:30:41.872Z,100.00
2023-02-18T22:33:13.590Z,100.00
2023-02-18T22:35:45.448Z,100.00
2023-02-18T22:38:17.205Z,100.00
2023-02-18T22:40:50.860Z,100.00
2023-02-18T22:43:22.692Z,100.00
2023-02-18T22:45:54.545Z,100.00
2023-02-18T22:48:26.313Z,100.00
2023-02-18T22:50:58.614Z,100.00
2023-02-18T22:53:30.618Z,100.00
2023-02-18T22:56:05.026Z,100.00
2023-02-18T22:58:37.636Z,100.00
2023-02-18T23:01:19.431Z,100.00
2023-02-18T23:03:51.624Z,100.00
2023-02-18T23:06:24.512Z,100.00
2023-02-18T23:08:56.967Z,100.00
2023-02-18T23:11:29.278Z,100.00
2023-02-18T23:14:15.050Z,100.00
2023-02-18T23:17:08.009Z,100.00
2023-02-18T23:19:38.714Z,100.00
2023-02-18T23:22:12.341Z,100.00
2023-02-18T23:24:45.557Z,100.00
2023-02-18T23:27:18.249Z,100.00
2023-02-18T23:29:48.789Z,100.00
2023-02-18T23:32:20.799Z,100.00
2023-02-18T23:34:53.330Z,100.00
2023-02-18T23:37:39.053Z,100.00
2023-02-18T23:40:13.654Z,100.00
2023-02-18T23:42:45.561Z,100.00
2023-02-18T23:45:17.727Z,100.00
2023-02-18T23:47:49.528Z,100.00
2023-02-18T23:50:21.318Z,100.00
2023-02-18T23:52:54.344Z,100.00
2023-02-18T23:55:26.214Z,100.00
2023-02-18T23:57:58.090Z,100.00
